Time;durP1;ratioP1;P1;durP2;ratioP2;P2;SDS_P1;SDS_P2;PMS_P1;PMS_P2;Temp;Humidity;BMP_temperature;BMP_pressure;BME280_temperature;BME280_humidity;BME280_pressure;Samples;Min_cycle;Max_cycle;Signal;HPM_P1;HPM_P2
2023/11/25 00:02:18;;;;;;;11.93;2.83;;;1.00;99.90;;;;;;5005862;28;20057;-53
2023/11/25 00:04:44;;;;;;;18.52;2.55;;;1.00;99.90;;;;;;5006134;28;20022;-53
2023/11/25 00:07:09;;;;;;;14.60;3.10;;;1.00;99.90;;;;;;5005559;28;20026;-54
2023/11/25 00:09:35;;;;;;;7.28;2.88;;;0.90;99.90;;;;;;5006162;28;20026;-54
2023/11/25 00:12:00;;;;;;;17.65;3.83;;;1.00;99.90;;;;;;5006087;28;20026;-54
2023/11/25 00:14:26;;;;;;;11.57;3.03;;;0.90;99.90;;;;;;5006300;28;20029;-54
2023/11/25 00:16:52;;;;;;;15.10;2.67;;;0.90;99.90;;;;;;5003966;28;20026;-54
2023/11/25 00:19:17;;;;;;;8.20;2.30;;;0.90;99.90;;;;;;5005614;28;20030;-54
2023/11/25 00:21:43;;;;;;;9.57;2.88;;;0.90;99.90;;;;;;5006047;28;20018;-54
2023/11/25 00:24:08;;;;;;;10.18;2.67;;;0.90;99.90;;;;;;5006146;28;20082;-54
2023/11/25 00:26:34;;;;;;;17.25;3.17;;;0.80;99.90;;;;;;5004124;28;20026;-54
2023/11/25 00:29:00;;;;;;;10.70;2.97;;;0.80;99.90;;;;;;4997849;28;20022;-53
2023/11/25 00:31:26;;;;;;;18.15;2.90;;;0.80;99.90;;;;;;5006246;28;20564;-54
2023/11/25 00:33:51;;;;;;;11.68;2.78;;;0.80;99.90;;;;;;5006083;28;20026;-53
2023/11/25 00:36:17;;;;;;;12.75;2.83;;;0.70;99.90;;;;;;5006069;28;20502;-54
2023/11/25 00:38:42;;;;;;;9.75;2.53;;;0.70;99.90;;;;;;5005945;28;20110;-54
2023/11/25 00:41:08;;;;;;;13.05;2.40;;;0.70;99.90;;;;;;5005917;28;20041;-54
2023/11/25 00:43:34;;;;;;;6.82;2.85;;;0.70;99.90;;;;;;5005502;28;20033;-54
2023/11/25 00:45:59;;;;;;;11.25;2.63;;;0.70;99.90;;;;;;5005929;28;20025;-54
2023/11/25 00:48:25;;;;;;;11.70;2.40;;;0.70;99.90;;;;;;5005086;28;20389;-54
2023/11/25 00:50:51;;;;;;;13.15;2.63;;;0.70;99.90;;;;;;5005478;28;20044;-54
2023/11/25 00:53:17;;;;;;;7.75;2.25;;;0.60;99.90;;;;;;5005263;28;20037;-54
2023/11/25 00:55:43;;;;;;;15.57;2.90;;;0.60;99.90;;;;;;5005984;28;20010;-54
2023/11/25 00:58:08;;;;;;;10.27;1.80;;;0.60;99.90;;;;;;5004825;28;20022;-54
2023/11/25 01:00:34;;;;;;;11.85;2.60;;;0.60;99.90;;;;;;5005583;28;20028;-54
2023/11/25 01:03:00;;;;;;;13.10;2.05;;;0.60;99.90;;;;;;5005025;28;20077;-53
2023/11/25 01:05:26;;;;;;;10.90;2.95;;;0.50;99.90;;;;;;5005258;28;20286;-53
2023/11/25 01:07:52;;;;;;;12.40;3.40;;;0.50;99.90;;;;;;5004851;28;20030;-53
2023/11/25 01:10:17;;;;;;;16.48;2.50;;;0.60;99.90;;;;;;5005451;28;20438;-53
2023/11/25 01:12:43;;;;;;;15.75;2.67;;;0.50;99.90;;;;;;5005494;28;20026;-53
2023/11/25 01:15:12;;;;;;;13.52;2.53;;;0.50;99.90;;;;;;5005052;28;20034;-52
2023/11/25 01:17:38;;;;;;;12.25;2.70;;;0.50;99.90;;;;;;5004672;28;20038;-53
2023/11/25 01:20:06;;;;;;;21.83;3.10;;;0.50;99.90;;;;;;4995848;28;20074;-53
2023/11/25 01:22:32;;;;;;;7.57;2.47;;;0.50;99.90;;;;;;5005136;28;20026;-52
2023/11/25 01:24:57;;;;;;;12.85;1.92;;;0.50;99.90;;;;;;5004936;28;20490;-54
2023/11/25 01:27:23;;;;;;;5.82;2.13;;;0.50;99.90;;;;;;5005592;28;20064;-53
2023/11/25 01:29:50;;;;;;;13.95;2.58;;;0.50;99.90;;;;;;5008602;28;20100;-54
2023/11/25 01:32:15;;;;;;;12.57;2.05;;;0.50;99.90;;;;;;5008163;28;20026;-54
2023/11/25 01:34:41;;;;;;;5.78;1.65;;;0.50;99.90;;;;;;5008285;28;20053;-54
2023/11/25 01:37:07;;;;;;;3.65;1.80;;;0.50;99.90;;;;;;5008168;28;20026;-54
2023/11/25 01:39:34;;;;;;;7.50;2.03;;;0.50;99.90;;;;;;5008423;28;20121;-55
2023/11/25 01:42:00;;;;;;;8.73;2.30;;;0.60;99.90;;;;;;5008729;28;20109;-52
2023/11/25 01:44:25;;;;;;;7.68;2.08;;;0.60;99.90;;;;;;5008014;28;20026;-53
2023/11/25 01:46:52;;;;;;;7.28;1.80;;;0.60;99.90;;;;;;5007814;28;20078;-53
2023/11/25 01:49:22;;;;;;;12.55;2.10;;;0.60;99.90;;;;;;5007840;28;20033;-52
2023/11/25 01:51:49;;;;;;;13.35;2.50;;;0.60;99.90;;;;;;5008183;28;20049;-53
2023/11/25 01:54:16;;;;;;;9.60;2.58;;;0.60;99.90;;;;;;5007797;28;20053;-55
2023/11/25 01:56:45;;;;;;;8.00;1.80;;;0.50;99.90;;;;;;5007930;28;20026;-55
2023/11/25 01:59:15;;;;;;;8.30;2.28;;;0.60;99.90;;;;;;5007639;28;20483;-54
2023/11/25 02:01:41;;;;;;;6.43;1.87;;;0.60;99.90;;;;;;5008242;28;20030;-53
2023/11/25 02:04:07;;;;;;;8.65;1.95;;;0.60;99.90;;;;;;5005578;28;20069;-53
2023/11/25 02:06:34;;;;;;;10.48;1.85;;;0.50;99.90;;;;;;5008248;28;20036;-53
2023/11/25 02:09:00;;;;;;;17.05;2.38;;;0.50;99.90;;;;;;5007629;28;20083;-53
2023/11/25 02:11:25;;;;;;;5.90;1.65;;;0.50;99.90;;;;;;4992374;28;20034;-53
2023/11/25 02:13:51;;;;;;;6.03;1.60;;;0.50;99.90;;;;;;4993025;28;20031;-53
2023/11/25 02:16:18;;;;;;;8.50;2.03;;;0.50;99.90;;;;;;5001288;28;20108;-54
2023/11/25 02:18:43;;;;;;;7.28;2.20;;;0.50;99.90;;;;;;5007443;28;20041;-53
2023/11/25 02:21:10;;;;;;;10.80;2.28;;;0.50;99.90;;;;;;5007482;28;20255;-55
2023/11/25 02:23:35;;;;;;;4.20;1.70;;;0.60;99.90;;;;;;5008115;28;21873;-53
2023/11/25 02:26:02;;;;;;;12.40;4.03;;;0.50;99.90;;;;;;5007623;28;20054;-53
2023/11/25 02:28:28;;;;;;;7.32;1.70;;;0.50;99.90;;;;;;5007142;28;20029;-52
2023/11/25 02:30:54;;;;;;;10.02;1.70;;;0.50;99.90;;;;;;5007007;28;20031;-53
2023/11/25 02:33:21;;;;;;;13.30;2.00;;;0.50;99.90;;;;;;5007343;28;20022;-53
2023/11/25 02:35:47;;;;;;;6.95;1.70;;;0.50;99.90;;;;;;5007422;28;20034;-54
2023/11/25 02:38:16;;;;;;;12.93;2.03;;;0.50;99.90;;;;;;5006976;28;20044;-53
2023/11/25 02:40:45;;;;;;;15.48;2.08;;;0.50;99.90;;;;;;5007306;28;20029;-53
2023/11/25 02:43:11;;;;;;;5.40;1.63;;;0.50;99.90;;;;;;5007241;28;20048;-53
2023/11/25 02:45:39;;;;;;;8.90;1.45;;;0.50;99.90;;;;;;5007210;28;20037;-53
2023/11/25 02:48:05;;;;;;;11.70;2.25;;;0.50;99.90;;;;;;5006908;28;20018;-53
2023/11/25 02:50:32;;;;;;;10.10;2.08;;;0.50;99.90;;;;;;5006983;28;20030;-53
2023/11/25 02:52:58;;;;;;;12.38;2.33;;;0.50;99.90;;;;;;5007139;28;20022;-53
2023/11/25 02:55:24;;;;;;;9.57;2.67;;;0.50;99.90;;;;;;5007067;28;20036;-53
2023/11/25 02:57:52;;;;;;;9.73;2.28;;;0.50;99.90;;;;;;5006875;28;20555;-53
2023/11/25 03:02:44;;;;;;;7.03;2.10;;;0.50;99.90;;;;;;5005845;28;20121;-53
2023/11/25 03:05:10;;;;;;;10.43;2.15;;;0.50;99.90;;;;;;5007573;28;20172;-53
2023/11/25 03:07:38;;;;;;;5.05;1.55;;;0.50;99.90;;;;;;5006906;28;20026;-53
2023/11/25 03:10:04;;;;;;;5.38;1.60;;;0.50;99.90;;;;;;5007189;28;20022;-53
2023/11/25 03:12:30;;;;;;;13.68;1.55;;;0.50;99.90;;;;;;5020952;28;20040;-52
2023/11/25 03:14:56;;;;;;;9.63;2.13;;;0.40;99.90;;;;;;5007036;28;20491;-53
2023/11/25 03:17:22;;;;;;;6.00;1.85;;;0.40;99.90;;;;;;5006292;28;20337;-51
2023/11/25 03:19:48;;;;;;;12.25;1.67;;;0.40;99.90;;;;;;5006755;28;20026;-52
2023/11/25 03:22:14;;;;;;;12.85;1.73;;;0.50;99.90;;;;;;5006567;28;20041;-57
2023/11/25 03:24:41;;;;;;;7.18;1.70;;;0.50;99.90;;;;;;5006537;28;20026;-53
2023/11/25 03:27:07;;;;;;;7.32;1.50;;;0.50;99.90;;;;;;5006323;28;20383;-53
2023/11/25 03:29:32;;;;;;;11.63;1.77;;;0.50;99.90;;;;;;5006586;28;20105;-53
2023/11/25 03:31:59;;;;;;;7.72;1.67;;;0.50;99.90;;;;;;5006813;28;20030;-53
2023/11/25 03:34:25;;;;;;;6.72;1.73;;;0.50;99.90;;;;;;5006969;28;20025;-54
2023/11/25 03:36:51;;;;;;;17.00;2.63;;;0.50;99.90;;;;;;5006557;28;20038;-55
2023/11/25 03:39:17;;;;;;;9.90;1.80;;;0.50;99.90;;;;;;5006247;28;20022;-54
2023/11/25 03:41:43;;;;;;;15.80;2.05;;;0.60;99.90;;;;;;5006432;28;20026;-54
2023/11/25 03:44:08;;;;;;;12.63;2.42;;;0.50;99.90;;;;;;5006045;28;20462;-55
2023/11/25 03:46:34;;;;;;;13.27;1.67;;;0.60;99.90;;;;;;5006386;28;20089;-54
2023/11/25 03:48:59;;;;;;;5.65;1.70;;;0.60;99.90;;;;;;5004937;28;20474;-55
2023/11/25 03:51:25;;;;;;;7.05;1.60;;;0.60;99.90;;;;;;5005815;28;20026;-55
2023/11/25 03:53:51;;;;;;;9.88;1.77;;;0.70;99.90;;;;;;5005173;28;20132;-54
2023/11/25 03:56:16;;;;;;;9.50;1.63;;;0.70;99.90;;;;;;5006071;28;20041;-55
2023/11/25 03:58:42;;;;;;;4.90;1.58;;;0.70;99.90;;;;;;5006486;28;20090;-54
2023/11/25 04:01:08;;;;;;;6.75;2.05;;;0.80;99.90;;;;;;5006648;28;20127;-54
2023/11/25 04:03:35;;;;;;;7.53;1.52;;;0.80;99.90;;;;;;5005845;28;20116;-55
2023/11/25 04:06:03;;;;;;;12.77;2.33;;;0.80;99.90;;;;;;5005775;28;20045;-54
2023/11/25 04:08:32;;;;;;;7.22;1.60;;;0.80;99.90;;;;;;5005878;28;20029;-55
2023/11/25 04:10:58;;;;;;;6.07;1.55;;;0.90;99.90;;;;;;5004519;28;20475;-55
2023/11/25 04:13:24;;;;;;;8.98;2.05;;;0.90;99.90;;;;;;5004588;28;20040;-54
2023/11/25 04:15:50;;;;;;;23.48;2.35;;;0.90;99.90;;;;;;5004685;28;20022;-54
2023/11/25 04:18:15;;;;;;;10.65;2.55;;;1.00;99.90;;;;;;5005471;28;20382;-54
2023/11/25 04:20:41;;;;;;;11.18;1.77;;;1.00;99.90;;;;;;5004573;28;20226;-56
2023/11/25 04:23:08;;;;;;;12.15;2.42;;;1.00;99.90;;;;;;5005800;28;20094;-56
2023/11/25 04:25:34;;;;;;;13.35;2.47;;;1.10;99.90;;;;;;4999796;28;20564;-55
2023/11/25 04:28:00;;;;;;;11.20;2.30;;;1.10;99.90;;;;;;4996271;28;20018;-56
2023/11/25 04:30:26;;;;;;;14.50;2.08;;;1.10;99.90;;;;;;4997832;28;20066;-56
2023/11/25 04:32:51;;;;;;;6.70;2.10;;;1.10;99.90;;;;;;5004435;28;20033;-56
2023/11/25 04:35:17;;;;;;;11.80;2.85;;;1.20;99.90;;;;;;5005007;28;20065;-55
2023/11/25 04:37:47;;;;;;;11.68;2.10;;;1.20;99.90;;;;;;5005219;28;20120;-55
2023/11/25 04:40:14;;;;;;;10.00;2.25;;;1.20;99.90;;;;;;5006143;28;20022;-55
2023/11/25 04:42:43;;;;;;;11.27;2.67;;;1.20;99.90;;;;;;5005710;28;20057;-54
2023/11/25 04:45:16;;;;;;;9.00;1.98;;;1.30;99.90;;;;;;5005440;28;20026;-54
2023/11/25 04:47:47;;;;;;;14.50;3.45;;;1.30;99.90;;;;;;5005446;28;20046;-54
2023/11/25 04:50:13;;;;;;;12.20;2.20;;;1.40;99.90;;;;;;5005563;28;20421;-55
2023/11/25 04:52:39;;;;;;;12.30;1.95;;;1.40;99.90;;;;;;5005698;28;20063;-55
2023/11/25 04:55:09;;;;;;;12.45;2.00;;;1.50;99.90;;;;;;5005507;28;20041;-54
2023/11/25 04:57:38;;;;;;;5.93;1.92;;;1.50;99.90;;;;;;5003798;28;20244;-55
2023/11/25 05:00:09;;;;;;;8.73;2.00;;;1.50;99.90;;;;;;5003994;28;20143;-55
2023/11/25 05:02:36;;;;;;;9.88;3.30;;;1.60;99.90;;;;;;5006387;28;20056;-54
2023/11/25 05:05:03;;;;;;;7.53;1.75;;;1.60;99.90;;;;;;5008879;28;20417;-55
2023/11/25 05:07:29;;;;;;;15.18;2.97;;;1.60;99.90;;;;;;5008567;28;20391;-54
2023/11/25 05:09:55;;;;;;;15.55;3.00;;;1.60;99.90;;;;;;5008942;28;20025;-54
2023/11/25 05:12:20;;;;;;;9.82;2.00;;;1.60;99.90;;;;;;5008918;28;20026;-54
2023/11/25 05:14:46;;;;;;;14.43;2.90;;;1.70;99.90;;;;;;5008961;28;20037;-54
2023/11/25 05:17:11;;;;;;;18.02;3.45;;;1.70;99.90;;;;;;5008696;28;20126;-55
2023/11/25 05:19:37;;;;;;;11.30;2.42;;;1.70;99.90;;;;;;5008796;28;20026;-55
2023/11/25 05:22:04;;;;;;;17.42;2.67;;;1.80;99.90;;;;;;5007251;28;20078;-54
2023/11/25 05:24:30;;;;;;;15.70;2.00;;;1.80;99.90;;;;;;5008312;28;20084;-55
2023/11/25 05:26:55;;;;;;;8.45;1.92;;;1.80;99.90;;;;;;5007790;28;20053;-55
2023/11/25 05:29:21;;;;;;;11.85;2.92;;;1.90;99.90;;;;;;5007941;28;20508;-55
2023/11/25 05:31:47;;;;;;;11.25;3.33;;;1.90;99.90;;;;;;5008651;28;20500;-55
2023/11/25 05:34:12;;;;;;;12.02;2.55;;;1.90;99.90;;;;;;5008194;28;20025;-54
2023/11/25 05:36:38;;;;;;;17.15;3.85;;;1.90;99.90;;;;;;5008180;28;20510;-55
2023/11/25 05:39:07;;;;;;;11.70;2.92;;;1.90;99.90;;;;;;5007918;28;20030;-55
2023/11/25 05:41:37;;;;;;;11.88;2.80;;;2.00;99.90;;;;;;5008163;28;20026;-55
2023/11/25 05:44:06;;;;;;;9.90;1.90;;;1.90;99.90;;;;;;5008206;28;20461;-54
2023/11/25 05:46:32;;;;;;;16.63;2.67;;;1.90;99.90;;;;;;5008291;28;20022;-55
2023/11/25 05:48:58;;;;;;;10.43;2.47;;;1.90;99.90;;;;;;5006677;28;20032;-55
2023/11/25 05:51:33;;;;;;;14.07;3.50;;;1.90;99.90;;;;;;5008161;28;20384;-54
2023/11/25 05:53:58;;;;;;;16.77;2.38;;;1.90;99.90;;;;;;5008002;28;20057;-55
2023/11/25 05:56:29;;;;;;;7.88;2.42;;;1.90;99.90;;;;;;5006603;28;20435;-54
2023/11/25 05:58:56;;;;;;;10.40;2.33;;;1.90;99.90;;;;;;5007700;28;20030;-57
2023/11/25 06:01:21;;;;;;;8.02;2.15;;;1.90;99.90;;;;;;5007753;28;20026;-55
2023/11/25 06:03:50;;;;;;;13.45;3.13;;;1.90;99.90;;;;;;5007655;28;20053;-55
2023/11/25 06:06:16;;;;;;;9.10;2.65;;;1.90;99.90;;;;;;5007661;28;20018;-55
2023/11/25 06:08:42;;;;;;;10.65;2.20;;;2.00;99.90;;;;;;5007464;28;20033;-55
2023/11/25 06:11:17;;;;;;;10.40;2.53;;;1.90;99.90;;;;;;5007517;28;20022;-55
2023/11/25 06:13:44;;;;;;;10.20;2.33;;;2.00;99.90;;;;;;5007286;28;20438;-55
2023/11/25 06:16:09;;;;;;;14.75;3.00;;;2.00;99.90;;;;;;5006695;28;20022;-55
2023/11/25 06:18:35;;;;;;;11.02;4.07;;;2.00;99.90;;;;;;5007323;28;20022;-55
2023/11/25 06:21:02;;;;;;;17.00;2.50;;;2.00;99.90;;;;;;5001546;28;20098;-55
2023/11/25 06:23:28;;;;;;;8.75;2.22;;;2.00;99.90;;;;;;5007563;28;20041;-55
2023/11/25 06:25:53;;;;;;;14.50;2.08;;;2.10;99.90;;;;;;5015460;28;20053;-55
2023/11/25 06:28:23;;;;;;;15.45;3.22;;;2.10;99.90;;;;;;4994288;28;20287;-55
2023/11/25 06:30:55;;;;;;;5.82;2.33;;;2.10;99.90;;;;;;5004594;28;20409;-55
2023/11/25 06:33:24;;;;;;;13.13;2.22;;;2.20;99.90;;;;;;5002080;28;20065;-55
2023/11/25 06:35:50;;;;;;;10.63;3.05;;;2.20;99.90;;;;;;4991351;28;20071;-55
2023/11/25 06:38:16;;;;;;;11.25;3.47;;;2.20;99.90;;;;;;5015998;28;20028;-55
2023/11/25 06:40:42;;;;;;;8.50;2.70;;;2.30;99.90;;;;;;5007249;28;20083;-55
2023/11/25 06:43:07;;;;;;;11.95;2.38;;;2.20;99.90;;;;;;5007279;28;20521;-55
2023/11/25 06:45:34;;;;;;;11.80;2.88;;;2.30;99.90;;;;;;4990015;28;20069;-55
2023/11/25 06:48:00;;;;;;;14.23;2.97;;;2.30;99.90;;;;;;4989990;28;20494;-54
2023/11/25 06:50:28;;;;;;;17.55;4.40;;;2.20;99.90;;;;;;5006227;28;20037;-55
2023/11/25 06:52:53;;;;;;;9.50;2.85;;;2.30;99.90;;;;;;5007109;28;20060;-54
2023/11/25 06:55:19;;;;;;;17.00;3.53;;;2.30;99.90;;;;;;5006960;28;20386;-55
2023/11/25 06:57:45;;;;;;;18.10;4.10;;;2.30;99.90;;;;;;5006963;28;20030;-55
2023/11/25 07:00:12;;;;;;;16.55;3.70;;;2.20;99.90;;;;;;5006923;28;20034;-54
2023/11/25 07:02:39;;;;;;;12.07;3.40;;;2.20;99.90;;;;;;5006844;28;20095;-57
2023/11/25 07:05:07;;;;;;;37.25;4.28;;;2.20;99.90;;;;;;5007423;28;20048;-55
2023/11/25 07:07:33;;;;;;;22.80;3.67;;;2.20;99.90;;;;;;5006664;28;20028;-54
2023/11/25 07:09:59;;;;;;;10.57;3.20;;;2.20;99.90;;;;;;5002268;28;20022;-55
2023/11/25 07:12:24;;;;;;;10.00;3.20;;;2.30;99.90;;;;;;4995947;28;20121;-56
2023/11/25 07:14:50;;;;;;;11.75;3.15;;;2.30;99.90;;;;;;4989722;28;20105;-55
2023/11/25 07:17:15;;;;;;;10.85;3.35;;;2.30;99.90;;;;;;4989350;28;20026;-56
2023/11/25 07:19:42;;;;;;;14.38;3.58;;;2.40;99.90;;;;;;4986226;28;20471;-56
2023/11/25 07:22:08;;;;;;;11.43;3.47;;;2.40;99.90;;;;;;4988290;28;20036;-56
2023/11/25 07:24:34;;;;;;;11.82;3.95;;;2.40;99.90;;;;;;5001199;28;20033;-56
2023/11/25 07:27:04;;;;;;;14.45;3.72;;;2.40;99.90;;;;;;4995594;28;20023;-57
2023/11/25 07:29:33;;;;;;;17.42;3.95;;;2.40;99.90;;;;;;4999157;28;20109;-56
2023/11/25 07:32:02;;;;;;;10.50;3.33;;;2.40;99.90;;;;;;5004926;28;20026;-56
2023/11/25 07:34:31;;;;;;;13.20;3.35;;;2.40;99.90;;;;;;4993517;28;20076;-56
2023/11/25 07:36:58;;;;;;;14.07;3.13;;;2.40;99.90;;;;;;5012434;28;20028;-56
2023/11/25 07:39:23;;;;;;;15.25;3.70;;;2.40;99.90;;;;;;4994388;28;20037;-56
2023/11/25 07:41:57;;;;;;;14.57;3.00;;;2.40;99.90;;;;;;5002268;28;20511;-56
2023/11/25 07:44:27;;;;;;;17.92;2.97;;;2.40;99.90;;;;;;4988827;28;20022;-56
2023/11/25 07:46:53;;;;;;;12.13;2.37;;;2.40;99.90;;;;;;5001520;28;20018;-57
2023/11/25 07:49:18;;;;;;;10.38;2.60;;;2.40;99.90;;;;;;5005951;28;20087;-56
2023/11/25 07:51:45;;;;;;;12.65;3.20;;;2.40;99.90;;;;;;5006600;28;20030;-56
2023/11/25 07:54:11;;;;;;;15.50;2.95;;;2.40;99.90;;;;;;5006628;28;20394;-56
2023/11/25 07:56:37;;;;;;;15.45;2.70;;;2.40;99.90;;;;;;5006424;28;20103;-56
2023/11/25 07:59:03;;;;;;;13.40;2.67;;;2.40;99.90;;;;;;5005928;28;20228;-56
2023/11/25 08:01:29;;;;;;;9.13;3.00;;;2.30;99.90;;;;;;5006096;28;20567;-56
2023/11/25 08:03:54;;;;;;;12.52;2.38;;;2.20;99.90;;;;;;5005946;28;20031;-56
2023/11/25 08:06:25;;;;;;;9.55;3.40;;;2.20;99.90;;;;;;5005959;28;20065;-55
2023/11/25 08:08:53;;;;;;;10.98;2.70;;;2.10;99.90;;;;;;5005993;28;20286;-55
2023/11/25 08:11:26;;;;;;;12.55;3.20;;;2.00;99.90;;;;;;5006028;28;20026;-55
2023/11/25 08:13:52;;;;;;;7.22;2.00;;;1.90;99.90;;;;;;5003544;28;20386;-55
2023/11/25 08:16:18;;;;;;;11.82;2.35;;;1.80;99.90;;;;;;5004333;28;20044;-55
2023/11/25 08:18:47;;;;;;;8.82;2.10;;;1.80;99.90;;;;;;5004435;28;20064;-55
2023/11/25 08:21:14;;;;;;;5.03;2.25;;;1.80;99.90;;;;;;5004587;28;20025;-56
2023/11/25 08:23:41;;;;;;;7.15;2.58;;;1.80;99.90;;;;;;5004285;28;20025;-55
2023/11/25 08:26:19;;;;;;;11.52;3.08;;;1.80;99.90;;;;;;5004790;28;20014;-54
2023/11/25 08:28:45;;;;;;;9.70;2.85;;;1.80;99.90;;;;;;5003882;28;20026;-54
2023/11/25 08:31:11;;;;;;;11.30;2.58;;;1.80;99.90;;;;;;5005815;28;20037;-55
2023/11/25 08:33:38;;;;;;;8.75;3.08;;;1.80;99.90;;;;;;5005738;28;20026;-54
2023/11/25 08:36:06;;;;;;;11.70;3.33;;;1.90;99.90;;;;;;5005841;28;20022;-54
2023/11/25 08:38:31;;;;;;;13.00;3.33;;;1.90;99.90;;;;;;5008962;28;20025;-54
2023/11/25 08:40:57;;;;;;;8.30;2.92;;;1.90;99.90;;;;;;5009241;28;20022;-54
2023/11/25 08:43:23;;;;;;;11.98;3.15;;;2.00;99.90;;;;;;5008814;28;20036;-55
2023/11/25 08:45:49;;;;;;;13.60;4.20;;;2.00;99.90;;;;;;5008742;28;20021;-54
2023/11/25 08:48:15;;;;;;;14.18;3.95;;;2.00;99.90;;;;;;5007311;28;20026;-55
2023/11/25 08:50:41;;;;;;;7.68;3.53;;;2.00;99.90;;;;;;5007633;28;20026;-54
2023/11/25 08:53:08;;;;;;;12.85;4.28;;;2.00;99.90;;;;;;5008894;28;20030;-55
2023/11/25 08:55:33;;;;;;;11.20;4.13;;;2.10;99.90;;;;;;5004476;28;20027;-55
2023/11/25 08:57:59;;;;;;;15.25;4.97;;;2.20;99.90;;;;;;4990425;28;20118;-55
2023/11/25 09:00:29;;;;;;;13.30;4.00;;;2.20;99.90;;;;;;4995931;28;20483;-55
2023/11/25 09:02:56;;;;;;;17.67;6.50;;;2.30;99.90;;;;;;4990983;28;20073;-55
2023/11/25 09:05:22;;;;;;;18.83;6.97;;;2.40;99.90;;;;;;4990293;28;20515;-55
2023/11/25 09:07:51;;;;;;;14.88;5.82;;;2.40;99.90;;;;;;4990297;28;20033;-55
2023/11/25 09:10:17;;;;;;;13.63;5.78;;;2.40;99.90;;;;;;4990432;28;20057;-55
2023/11/25 09:12:45;;;;;;;11.43;5.43;;;2.50;99.90;;;;;;4990925;28;20023;-55
2023/11/25 09:15:12;;;;;;;11.30;5.43;;;2.50;99.90;;;;;;4990076;28;20105;-54
2023/11/25 09:17:40;;;;;;;16.45;5.65;;;2.60;99.90;;;;;;4990081;28;20019;-54
2023/11/25 09:20:09;;;;;;;13.07;5.20;;;2.60;99.90;;;;;;4991687;28;20079;-54
2023/11/25 09:22:36;;;;;;;17.60;5.03;;;2.60;99.90;;;;;;4990650;28;20045;-55
2023/11/25 09:25:02;;;;;;;17.63;6.65;;;2.70;99.90;;;;;;4991399;28;20497;-55
2023/11/25 09:27:28;;;;;;;19.77;5.65;;;2.70;99.90;;;;;;4990524;28;20048;-55
2023/11/25 09:29:54;;;;;;;13.25;5.57;;;2.70;99.90;;;;;;4990590;28;20026;-54
2023/11/25 09:32:19;;;;;;;9.88;4.63;;;2.70;99.90;;;;;;4991596;28;20041;-55
2023/11/25 09:34:45;;;;;;;16.23;5.38;;;2.70;99.90;;;;;;4990553;28;20019;-55
2023/11/25 09:37:12;;;;;;;13.65;4.80;;;2.80;99.90;;;;;;4989631;28;20037;-55
2023/11/25 09:39:37;;;;;;;8.65;4.18;;;2.80;99.90;;;;;;4989361;28;20099;-55
2023/11/25 09:42:03;;;;;;;18.58;4.97;;;2.90;99.90;;;;;;4991490;28;20053;-55
2023/11/25 09:44:30;;;;;;;13.02;4.50;;;2.90;99.90;;;;;;4989470;28;20030;-55
2023/11/25 09:46:56;;;;;;;16.02;3.92;;;3.00;99.90;;;;;;4990138;28;20015;-56
2023/11/25 09:49:22;;;;;;;14.95;4.57;;;3.00;99.90;;;;;;4990382;28;20407;-55
2023/11/25 09:51:49;;;;;;;9.65;3.80;;;3.10;99.90;;;;;;4990190;28;20030;-55
2023/11/25 09:54:21;;;;;;;8.25;3.35;;;3.10;99.90;;;;;;4990922;28;20053;-56
2023/11/25 09:56:48;;;;;;;10.23;3.65;;;3.20;99.90;;;;;;4990120;28;20030;-56
2023/11/25 09:59:15;;;;;;;7.55;3.60;;;3.20;99.90;;;;;;4991339;28;20030;-55
2023/11/25 10:01:42;;;;;;;13.02;3.65;;;3.30;99.90;;;;;;4989911;28;20033;-56
2023/11/25 10:04:11;;;;;;;13.80;3.55;;;3.30;99.90;;;;;;4991976;28;20631;-56
2023/11/25 10:06:37;;;;;;;9.18;3.13;;;3.30;99.90;;;;;;4988297;28;20029;-56
2023/11/25 10:09:03;;;;;;;10.07;4.03;;;3.30;99.90;;;;;;4991369;28;20093;-56
2023/11/25 10:11:32;;;;;;;10.60;4.57;;;3.40;99.90;;;;;;4991966;28;20014;-55
2023/11/25 10:13:58;;;;;;;13.95;3.47;;;3.40;99.90;;;;;;4992137;28;20018;-56
2023/11/25 10:16:28;;;;;;;9.60;3.50;;;3.40;99.90;;;;;;4991290;28;20394;-56
2023/11/25 10:18:54;;;;;;;17.23;3.67;;;3.40;99.90;;;;;;4990586;28;20037;-55
2023/11/25 10:21:20;;;;;;;9.00;3.95;;;3.50;99.90;;;;;;4991890;28;20269;-55
2023/11/25 10:23:45;;;;;;;15.60;4.68;;;3.50;99.90;;;;;;4990452;28;20075;-55
2023/11/25 10:26:16;;;;;;;10.75;3.90;;;3.50;99.90;;;;;;4989471;28;20391;-55
2023/11/25 10:28:45;;;;;;;23.70;5.15;;;3.50;99.90;;;;;;4989112;28;20109;-55
2023/11/25 10:31:14;;;;;;;18.20;3.85;;;3.50;99.90;;;;;;4991074;28;20030;-55
2023/11/25 10:33:41;;;;;;;10.82;3.95;;;3.50;99.90;;;;;;4992432;28;20018;-56
2023/11/25 10:36:08;;;;;;;16.17;3.70;;;3.50;99.90;;;;;;4990176;28;20101;-56
2023/11/25 10:38:39;;;;;;;9.43;3.60;;;3.50;99.90;;;;;;5000810;28;20087;-56
2023/11/25 10:41:05;;;;;;;;;;;3.50;99.90;;;;;;5007664;28;20018;-55
2023/11/25 10:43:32;;;;;;;9.35;3.42;;;3.50;99.90;;;;;;5007326;28;20367;-56
2023/11/25 10:46:08;;;;;;;12.85;4.28;;;3.50;99.90;;;;;;5006973;28;20432;-56
2023/11/25 10:48:40;;;;;;;11.52;3.25;;;3.60;99.90;;;;;;5007180;28;20032;-56
2023/11/25 10:51:08;;;;;;;13.80;3.33;;;3.60;99.90;;;;;;5007285;28;20021;-56
2023/11/25 10:53:36;;;;;;;12.15;3.55;;;3.60;99.90;;;;;;5005769;28;20029;-56
2023/11/25 10:56:03;;;;;;;13.32;4.07;;;3.60;99.90;;;;;;5007018;28;20052;-56
2023/11/25 10:58:30;;;;;;;7.63;4.07;;;3.70;99.90;;;;;;5005560;28;20401;-56
2023/11/25 11:00:57;;;;;;;5.47;3.10;;;3.70;99.90;;;;;;5007187;28;20483;-55
2023/11/25 11:03:50;;;;;;;6.75;3.72;;;3.70;99.90;;;;;;5006785;28;20125;-56
2023/11/25 11:06:22;;;;;;;11.38;3.60;;;3.70;99.90;;;;;;5007054;28;20030;-56
2023/11/25 11:08:51;;;;;;;13.35;3.28;;;3.70;99.90;;;;;;5006945;28;20024;-56
2023/11/25 11:11:31;;;;;;;10.68;3.72;;;3.70;99.90;;;;;;5006874;28;20026;-55
2023/11/25 11:14:01;;;;;;;6.63;3.38;;;3.70;99.90;;;;;;5007125;28;20091;-55
2023/11/25 11:16:40;;;;;;;9.95;3.28;;;3.70;99.90;;;;;;5007047;28;20030;-55
2023/11/25 11:19:09;;;;;;;10.57;3.55;;;3.80;99.90;;;;;;5007042;28;20030;-55
2023/11/25 11:21:37;;;;;;;9.02;3.30;;;3.80;99.90;;;;;;5007490;28;20335;-56
2023/11/25 11:24:06;;;;;;;5.95;2.58;;;3.90;99.90;;;;;;5007345;28;20033;-55
2023/11/25 11:26:43;;;;;;;5.88;2.55;;;3.90;99.90;;;;;;5007105;28;20029;-55
2023/11/25 11:29:09;;;;;;;3.92;2.42;;;3.90;99.90;;;;;;5007052;28;20109;-56
2023/11/25 11:31:56;;;;;;;4.50;1.92;;;4.00;99.90;;;;;;5007024;28;20022;-55
2023/11/25 11:34:24;;;;;;;4.32;1.77;;;4.00;99.90;;;;;;5007101;28;20025;-55
2023/11/25 11:36:51;;;;;;;5.20;1.73;;;3.90;99.90;;;;;;5006297;28;20026;-56
2023/11/25 11:39:37;;;;;;;4.00;1.92;;;3.90;99.90;;;;;;5006074;28;20491;-56
2023/11/25 11:42:57;;;;;;;4.57;2.00;;;3.90;99.90;;;;;;5006675;28;20036;-55
2023/11/25 11:45:22;;;;;;;3.20;1.90;;;3.90;99.90;;;;;;5000956;28;20042;-55
2023/11/25 11:47:52;;;;;;;2.60;1.80;;;3.90;99.90;;;;;;4990033;28;20109;-55
2023/11/25 11:50:29;;;;;;;4.45;1.90;;;3.90;99.90;;;;;;4992129;28;20014;-55
2023/11/25 11:53:00;;;;;;;2.78;1.80;;;4.00;99.90;;;;;;4990163;28;20045;-57
2023/11/25 11:55:52;;;;;;;2.78;2.15;;;4.00;99.90;;;;;;4990511;28;20079;-56
2023/11/25 11:58:20;;;;;;;5.70;2.10;;;4.00;99.90;;;;;;5005802;28;20050;-54
2023/11/25 12:00:48;;;;;;;6.50;1.88;;;4.00;99.90;;;;;;5006156;28;20026;-54
2023/11/25 12:03:15;;;;;;;3.65;1.80;;;3.90;99.90;;;;;;5006035;28;20431;-53
2023/11/25 12:05:41;;;;;;;4.97;1.70;;;4.00;99.90;;;;;;5005934;28;20456;-54
2023/11/25 12:08:07;;;;;;;4.70;2.28;;;4.00;99.90;;;;;;5005648;28;20026;-54
2023/11/25 12:10:33;;;;;;;6.05;2.50;;;4.00;99.90;;;;;;5001244;28;20068;-53
2023/11/25 12:12:58;;;;;;;6.82;2.30;;;4.00;99.90;;;;;;4994623;28;20034;-55
2023/11/25 12:15:24;;;;;;;5.90;2.28;;;4.00;99.90;;;;;;4990037;28;20064;-54
2023/11/25 12:17:52;;;;;;;4.75;2.53;;;4.10;99.90;;;;;;5003993;28;20121;-55
2023/11/25 12:20:18;;;;;;;4.55;2.10;;;4.10;99.90;;;;;;5005928;28;20075;-55
2023/11/25 12:22:44;;;;;;;8.70;2.72;;;4.20;99.90;;;;;;5005919;28;20038;-55
2023/11/25 12:25:13;;;;;;;9.07;3.75;;;4.10;99.90;;;;;;5005952;28;20433;-54
2023/11/25 12:27:47;;;;;;;5.38;2.55;;;4.20;99.90;;;;;;5004243;28;20025;-55
2023/11/25 12:30:13;;;;;;;5.25;2.70;;;4.30;99.90;;;;;;5005597;28;20555;-55
2023/11/25 12:32:38;;;;;;;5.13;2.00;;;4.30;99.90;;;;;;5004301;28;20030;-55
2023/11/25 12:35:06;;;;;;;6.38;3.25;;;4.40;99.90;;;;;;5005769;28;20033;-55
2023/11/25 12:37:34;;;;;;;13.40;3.10;;;4.50;99.90;;;;;;5004012;28;20532;-56
2023/11/25 12:40:16;;;;;;;6.90;2.58;;;4.50;99.90;;;;;;5005895;28;20117;-56
2023/11/25 12:42:43;;;;;;;6.80;2.40;;;4.50;99.90;;;;;;5000025;28;20018;-56
2023/11/25 12:45:09;;;;;;;6.07;2.45;;;4.50;99.90;;;;;;5005413;28;20160;-55
2023/11/25 12:47:48;;;;;;;9.60;2.83;;;4.50;99.90;;;;;;5005109;28;20105;-56
2023/11/25 12:50:17;;;;;;;7.57;2.58;;;4.50;99.90;;;;;;5005342;28;20033;-55
2023/11/25 12:52:45;;;;;;;9.38;3.08;;;4.60;99.90;;;;;;5004194;28;20387;-56
2023/11/25 12:55:12;;;;;;;7.38;2.67;;;4.60;99.90;;;;;;5005515;28;20109;-56